createdAt,value
2022-08-29T00:00:17.758Z,13.30
2022-08-29T00:02:49.915Z,12.98
2022-08-29T00:05:20.034Z,13.65
2022-08-29T00:07:51.439Z,13.30
2022-08-29T00:10:18.100Z,12.73
2022-08-29T00:12:44.561Z,13.38
2022-08-29T00:15:12.609Z,13.13
2022-08-29T00:17:39.168Z,13.98
2022-08-29T00:20:08.471Z,12.48
2022-08-29T00:22:35.071Z,13.30
2022-08-29T00:25:04.730Z,13.05
2022-08-29T00:27:32.949Z,14.27
2022-08-29T00:30:00.073Z,13.32
2022-08-29T00:32:26.955Z,13.02
2022-08-29T00:34:53.649Z,14.18
2022-08-29T00:37:20.157Z,13.07
2022-08-29T00:39:46.877Z,15.23
2022-08-29T00:42:13.319Z,13.70
2022-08-29T00:44:39.851Z,13.63
2022-08-29T00:47:12.093Z,14.07
2022-08-29T00:49:46.169Z,13.23
2022-08-29T00:52:28.322Z,13.63
2022-08-29T00:54:56.545Z,13.00
2022-08-29T00:57:25.467Z,13.32
2022-08-29T00:59:52.888Z,14.02
2022-08-29T01:02:20.009Z,13.43
2022-08-29T01:04:46.959Z,14.82
2022-08-29T01:07:13.759Z,15.10
2022-08-29T01:09:43.315Z,14.93
2022-08-29T01:12:16.843Z,14.32
2022-08-29T01:14:50.238Z,14.57
2022-08-29T01:17:26.642Z,14.45
2022-08-29T01:19:58.282Z,15.05
2022-08-29T01:22:51.732Z,13.90
2022-08-29T01:25:22.867Z,14.07
2022-08-29T01:27:59.399Z,14.18
2022-08-29T01:30:25.922Z,14.27
2022-08-29T01:32:52.652Z,14.07
2022-08-29T01:35:19.164Z,14.73
2022-08-29T01:37:45.616Z,13.65
2022-08-29T01:40:13.497Z,14.77
2022-08-29T01:42:40.113Z,14.18
2022-08-29T01:45:10.008Z,14.23
2022-08-29T01:50:15.001Z,14.30
2022-08-29T01:52:42.704Z,14.60
2022-08-29T01:55:09.392Z,14.68
2022-08-29T01:57:38.826Z,14.43
2022-08-29T02:00:08.343Z,15.50
2022-08-29T02:02:34.922Z,14.98
2022-08-29T02:05:02.699Z,15.65
2022-08-29T02:07:29.491Z,15.30
2022-08-29T02:09:56.199Z,15.18
2022-08-29T02:12:22.875Z,14.73
2022-08-29T02:14:50.730Z,15.35
2022-08-29T02:17:18.003Z,14.85
2022-08-29T02:19:44.470Z,15.63
2022-08-29T02:22:11.396Z,16.27
2022-08-29T02:24:38.083Z,15.43
2022-08-29T02:27:04.893Z,15.73
2022-08-29T02:29:37.696Z,16.15
2022-08-29T02:32:09.489Z,15.80
2022-08-29T02:34:36.970Z,15.18
2022-08-29T02:37:05.165Z,15.38
2022-08-29T02:39:32.519Z,15.40
2022-08-29T02:41:59.352Z,15.27
2022-08-29T02:44:25.844Z,15.45
2022-08-29T02:46:52.593Z,15.43
2022-08-29T02:49:19.082Z,15.68
2022-08-29T02:51:45.650Z,14.55
2022-08-29T02:54:12.703Z,15.77
2022-08-29T02:56:39.926Z,16.10
2022-08-29T02:59:08.323Z,15.27
2022-08-29T03:01:36.378Z,15.38
2022-08-29T03:04:03.406Z,15.57
2022-08-29T03:06:29.845Z,15.93
2022-08-29T03:08:56.359Z,16.33
2022-08-29T03:11:23.983Z,17.60
2022-08-29T03:13:50.523Z,17.30
2022-08-29T03:16:18.373Z,17.42
2022-08-29T03:18:44.906Z,17.38
2022-08-29T03:21:23.526Z,16.98
2022-08-29T03:23:51.515Z,17.30
2022-08-29T03:26:19.668Z,18.27
2022-08-29T03:28:46.973Z,18.77
2022-08-29T03:31:13.425Z,17.98
2022-08-29T03:33:40.065Z,19.40
2022-08-29T03:36:14.090Z,19.30
2022-08-29T03:38:46.341Z,18.92
2022-08-29T03:41:20.724Z,20.48
2022-08-29T03:43:47.133Z,20.15
2022-08-29T03:46:13.668Z,20.95
2022-08-29T03:48:40.214Z,21.17
2022-08-29T03:51:06.942Z,21.88
2022-08-29T03:53:33.586Z,21.23
2022-08-29T03:56:00.406Z,22.13
2022-08-29T03:58:26.845Z,22.38
2022-08-29T04:00:53.336Z,20.95
2022-08-29T04:03:20.351Z,22.48
2022-08-29T04:05:51.483Z,21.48
2022-08-29T04:08:21.849Z,22.50
2022-08-29T04:10:48.336Z,21.92
2022-08-29T04:13:14.792Z,23.85
2022-08-29T04:15:42.519Z,23.65
2022-08-29T04:18:11.205Z,23.85
2022-08-29T04:20:41.550Z,25.35
2022-08-29T04:23:08.700Z,26.63
2022-08-29T04:25:37.979Z,25.80
2022-08-29T04:28:12.493Z,26.03
2022-08-29T04:30:39.942Z,25.42
2022-08-29T04:33:06.973Z,23.63
2022-08-29T04:35:34.912Z,24.27
2022-08-29T04:38:01.305Z,23.25
2022-08-29T04:40:27.750Z,22.65
2022-08-29T04:42:54.194Z,23.95
2022-08-29T04:45:22.475Z,22.88
2022-08-29T04:47:49.034Z,21.75
2022-08-29T04:50:18.878Z,19.77
2022-08-29T04:52:45.558Z,20.10
2022-08-29T04:55:13.176Z,19.10
2022-08-29T04:57:40.228Z,18.52
2022-08-29T05:00:13.795Z,18.02
2022-08-29T05:02:41.812Z,16.70
2022-08-29T05:05:10.675Z,16.83
2022-08-29T05:07:38.410Z,16.92
2022-08-29T05:10:09.907Z,16.85
2022-08-29T05:12:37.604Z,15.35
2022-08-29T05:15:06.520Z,15.73
2022-08-29T05:17:33.613Z,14.98
2022-08-29T05:20:01.027Z,14.80
2022-08-29T05:22:27.490Z,14.95
2022-08-29T05:24:53.962Z,15.10
2022-08-29T05:27:22.306Z,12.98
2022-08-29T05:29:51.456Z,14.65
2022-08-29T05:32:21.434Z,13.88
2022-08-29T05:34:49.614Z,13.88
2022-08-29T05:37:19.424Z,13.20
2022-08-29T05:39:48.991Z,13.52
2022-08-29T05:42:17.114Z,14.07
2022-08-29T05:44:43.981Z,12.27
2022-08-29T05:47:12.618Z,12.20
2022-08-29T05:49:40.958Z,12.85
2022-08-29T05:52:07.989Z,12.57
2022-08-29T05:54:37.469Z,12.40
2022-08-29T05:57:04.987Z,12.43
2022-08-29T05:59:31.456Z,12.32
2022-08-29T06:01:58.155Z,12.40
2022-08-29T06:04:24.637Z,11.60
2022-08-29T06:06:51.075Z,11.60
2022-08-29T06:09:17.894Z,12.13
2022-08-29T06:11:48.525Z,11.10
2022-08-29T06:14:16.817Z,11.23
2022-08-29T06:16:43.377Z,11.07
2022-08-29T06:19:10.182Z,11.60
2022-08-29T06:21:36.620Z,11.93
2022-08-29T06:24:04.282Z,11.07
2022-08-29T06:26:31.509Z,12.23
2022-08-29T06:28:58.088Z,11.45
2022-08-29T06:31:29.092Z,11.13
2022-08-29T06:33:59.146Z,11.20
2022-08-29T06:36:26.846Z,11.48
2022-08-29T06:38:56.850Z,11.43
2022-08-29T06:41:24.906Z,11.10
2022-08-29T06:43:52.094Z,10.98
2022-08-29T06:46:25.027Z,11.60
2022-08-29T06:48:52.349Z,11.30
2022-08-29T06:51:19.564Z,10.90
2022-08-29T06:53:47.732Z,10.50
2022-08-29T06:56:14.442Z,11.18
2022-08-29T06:58:41.842Z,10.48
2022-08-29T07:01:11.151Z,10.52
2022-08-29T07:03:38.034Z,9.95
2022-08-29T07:06:05.432Z,10.65
2022-08-29T07:08:32.723Z,11.35
2022-08-29T07:10:59.711Z,10.30
2022-08-29T07:13:26.570Z,9.95
2022-08-29T07:15:53.112Z,9.95
2022-08-29T07:18:20.484Z,10.25
2022-08-29T07:20:46.941Z,9.43
2022-08-29T07:23:13.385Z,10.30
2022-08-29T07:25:39.920Z,9.60
2022-08-29T07:28:06.871Z,9.48
2022-08-29T07:30:34.764Z,9.57
2022-08-29T07:33:01.300Z,9.30
2022-08-29T07:35:31.089Z,9.63
2022-08-29T07:38:01.370Z,9.82
2022-08-29T07:40:28.540Z,10.07
2022-08-29T07:42:55.139Z,9.38
2022-08-29T07:45:21.555Z,9.40
2022-08-29T07:47:50.942Z,9.80
2022-08-29T07:50:17.455Z,9.55
2022-08-29T07:52:44.419Z,9.40
2022-08-29T07:55:11.103Z,9.70
2022-08-29T07:57:39.782Z,9.90
2022-08-29T08:00:10.444Z,9.65
2022-08-29T08:02:37.018Z,9.63
2022-08-29T08:05:03.642Z,9.38
2022-08-29T08:07:35.004Z,9.68
2022-08-29T08:10:02.512Z,9.82
2022-08-29T08:12:29.307Z,9.65
2022-08-29T08:14:56.994Z,9.80
2022-08-29T08:17:23.887Z,9.32
2022-08-29T08:19:50.295Z,9.18
2022-08-29T08:22:16.958Z,8.90
2022-08-29T08:24:43.431Z,9.13
2022-08-29T08:27:10.116Z,8.90
2022-08-29T08:29:36.567Z,8.60
2022-08-29T08:32:03.444Z,8.73
2022-08-29T08:34:30.253Z,8.80
2022-08-29T08:36:56.781Z,8.30
2022-08-29T08:39:23.227Z,8.07
2022-08-29T08:41:57.328Z,7.90
2022-08-29T08:44:41.998Z,7.90
2022-08-29T08:47:11.234Z,8.25
2022-08-29T08:49:44.662Z,8.00
2022-08-29T08:52:20.725Z,7.60
2022-08-29T08:54:55.208Z,7.90
2022-08-29T08:57:22.162Z,7.80
2022-08-29T08:59:57.551Z,7.40
2022-08-29T09:03:00.045Z,7.63
2022-08-29T09:05:58.406Z,7.60
2022-08-29T09:08:57.794Z,7.60
2022-08-29T09:11:49.704Z,7.30
2022-08-29T09:14:34.827Z,7.10
2022-08-29T09:17:04.509Z,7.40
2022-08-29T09:19:31.228Z,7.20
2022-08-29T09:22:10.155Z,7.25
2022-08-29T09:24:44.594Z,7.20
2022-08-29T09:27:23.211Z,6.85
2022-08-29T09:29:57.226Z,7.00
2022-08-29T09:32:23.692Z,7.18
2022-08-29T09:35:07.807Z,6.80
2022-08-29T09:37:35.383Z,6.93
2022-08-29T09:40:07.555Z,7.47
2022-08-29T09:42:38.086Z,7.20
2022-08-29T09:45:18.013Z,7.90
2022-08-29T09:50:25.115Z,7.70
2022-08-29T09:52:55.459Z,7.80
2022-08-29T09:55:29.131Z,7.20
2022-08-29T09:58:02.418Z,7.50
2022-08-29T10:00:33.953Z,7.35
2022-08-29T10:03:02.811Z,7.28
2022-08-29T10:05:45.977Z,7.50
2022-08-29T10:08:35.294Z,7.40
2022-08-29T10:11:06.516Z,7.45
2022-08-29T10:13:46.047Z,7.57
2022-08-29T10:16:27.897Z,7.47
2022-08-29T10:19:03.107Z,7.30
2022-08-29T10:21:58.917Z,6.80
2022-08-29T10:24:59.130Z,7.15
2022-08-29T10:27:40.760Z,7.30
2022-08-29T10:30:07.546Z,7.30
2022-08-29T10:33:14.414Z,7.18
2022-08-29T10:35:55.784Z,6.82
2022-08-29T10:38:40.141Z,7.45
2022-08-29T10:41:50.507Z,7.20
2022-08-29T10:44:41.406Z,7.40
2022-08-29T10:47:39.391Z,7.15
2022-08-29T10:50:43.778Z,7.32
2022-08-29T10:53:27.746Z,7.30
2022-08-29T10:56:05.870Z,6.97
2022-08-29T10:59:12.225Z,7.57
2022-08-29T11:01:47.952Z,7.22
2022-08-29T11:04:22.210Z,7.28
2022-08-29T11:06:48.643Z,7.55
2022-08-29T11:09:21.514Z,7.40
2022-08-29T11:12:17.488Z,7.55
2022-08-29T11:15:02.833Z,7.53
2022-08-29T11:17:34.764Z,7.25
2022-08-29T11:20:17.911Z,7.57
2022-08-29T11:23:05.351Z,7.40
2022-08-29T11:25:35.738Z,7.32
2022-08-29T11:28:08.379Z,7.40
2022-08-29T11:30:48.345Z,7.38
2022-08-29T11:33:39.868Z,7.80
2022-08-29T11:36:07.129Z,7.43
2022-08-29T11:38:45.668Z,7.85
2022-08-29T11:41:33.815Z,7.90
2022-08-29T11:44:33.418Z,7.50
2022-08-29T11:47:00.395Z,7.47
2022-08-29T11:49:37.057Z,7.82
2022-08-29T11:52:10.958Z,7.70
2022-08-29T11:54:38.947Z,7.57
2022-08-29T11:57:05.306Z,8.07
2022-08-29T11:59:44.593Z,8.05
2022-08-29T12:02:31.046Z,8.18
2022-08-29T12:05:03.444Z,7.90
2022-08-29T12:07:38.201Z,8.13
2022-08-29T12:10:26.420Z,7.90
2022-08-29T12:12:56.535Z,8.00
2022-08-29T12:15:32.324Z,7.35
2022-08-29T12:18:23.292Z,7.90
2022-08-29T12:20:52.213Z,7.40
2022-08-29T12:23:25.232Z,7.13
2022-08-29T12:26:15.855Z,7.80
2022-08-29T12:28:56.309Z,7.80
2022-08-29T12:32:02.212Z,7.75
2022-08-29T12:35:05.249Z,7.57
2022-08-29T12:38:09.033Z,7.63
2022-08-29T12:41:03.505Z,7.68
2022-08-29T12:43:34.987Z,7.38
2022-08-29T12:46:10.090Z,7.55
2022-08-29T12:48:57.620Z,7.70
2022-08-29T12:51:42.919Z,7.57
2022-08-29T12:54:12.301Z,8.00
2022-08-29T12:56:47.262Z,8.18
2022-08-29T12:59:19.582Z,8.30
2022-08-29T13:01:56.128Z,8.30
2022-08-29T13:04:31.942Z,8.20
2022-08-29T13:07:04.364Z,8.13
2022-08-29T13:09:43.098Z,8.50
2022-08-29T13:12:24.813Z,8.80
2022-08-29T13:15:08.243Z,8.88
2022-08-29T13:17:39.742Z,8.70
2022-08-29T13:20:40.358Z,8.40
2022-08-29T13:23:12.518Z,8.43
2022-08-29T13:26:06.459Z,8.25
2022-08-29T13:28:45.978Z,8.32
2022-08-29T13:31:15.157Z,8.70
2022-08-29T13:33:50.622Z,8.30
2022-08-29T13:36:41.146Z,8.50
2022-08-29T13:39:18.042Z,7.30
2022-08-29T13:41:53.859Z,7.40
2022-08-29T13:44:24.089Z,7.75
2022-08-29T13:46:52.707Z,7.68
2022-08-29T13:49:25.959Z,7.70
2022-08-29T13:51:52.510Z,8.43
2022-08-29T13:54:19.407Z,7.82
2022-08-29T13:56:58.160Z,7.22
2022-08-29T13:59:27.943Z,7.40
2022-08-29T14:02:12.939Z,6.90
2022-08-29T14:04:41.019Z,7.25
2022-08-29T14:07:12.048Z,7.30
2022-08-29T14:09:41.882Z,6.97
2022-08-29T14:12:08.955Z,7.35
2022-08-29T14:14:35.488Z,7.28
2022-08-29T14:17:02.040Z,6.90
2022-08-29T14:19:29.878Z,7.30
2022-08-29T14:22:00.317Z,7.20
2022-08-29T14:24:29.161Z,7.50
2022-08-29T14:27:01.999Z,7.18
2022-08-29T14:29:30.853Z,6.90
2022-08-29T14:31:58.194Z,6.88
2022-08-29T14:34:24.819Z,6.88
2022-08-29T14:36:57.003Z,7.07
2022-08-29T14:39:26.245Z,6.55
2022-08-29T14:41:52.923Z,6.68
2022-08-29T14:44:20.476Z,6.40
2022-08-29T14:46:47.537Z,6.72
2022-08-29T14:49:14.163Z,6.60
2022-08-29T14:51:41.972Z,6.80
2022-08-29T14:54:08.702Z,6.53
2022-08-29T14:56:48.204Z,7.20
2022-08-29T14:59:14.985Z,6.90
2022-08-29T15:01:41.855Z,6.90
2022-08-29T15:04:08.712Z,6.95
2022-08-29T15:06:35.305Z,6.85
2022-08-29T15:09:01.852Z,7.47
2022-08-29T15:11:28.394Z,6.85
2022-08-29T15:13:54.873Z,7.07
2022-08-29T15:16:21.488Z,6.97
2022-08-29T15:21:34.601Z,6.32
2022-08-29T15:24:01.155Z,6.90
2022-08-29T15:26:27.670Z,6.50
2022-08-29T15:28:54.865Z,6.50
2022-08-29T15:31:22.438Z,6.70
2022-08-29T15:33:49.722Z,6.38
2022-08-29T15:36:16.303Z,6.53
2022-08-29T15:38:43.086Z,6.50
2022-08-29T15:41:09.525Z,6.90
2022-08-29T15:43:36.056Z,6.90
2022-08-29T15:46:02.628Z,7.10
2022-08-29T15:48:29.174Z,6.75
2022-08-29T15:50:55.607Z,6.70
2022-08-29T15:53:22.244Z,7.00
2022-08-29T15:55:48.683Z,7.10
2022-08-29T15:58:15.240Z,7.15
2022-08-29T16:00:41.983Z,7.15
2022-08-29T16:03:08.663Z,7.00
2022-08-29T16:05:36.647Z,7.03
2022-08-29T16:08:03.356Z,7.50
2022-08-29T16:10:30.694Z,7.68
2022-08-29T16:12:57.647Z,7.35
2022-08-29T16:15:24.519Z,7.32
2022-08-29T16:17:51.437Z,7.13
2022-08-29T16:20:18.854Z,6.80
2022-08-29T16:22:45.313Z,7.07
2022-08-29T16:25:13.116Z,6.70
2022-08-29T16:27:40.061Z,7.00
2022-08-29T16:30:07.183Z,7.15
2022-08-29T16:32:33.862Z,6.70
2022-08-29T16:35:00.348Z,6.93
2022-08-29T16:37:27.282Z,7.03
2022-08-29T16:39:54.456Z,6.70
2022-08-29T16:42:21.705Z,6.50
2022-08-29T16:44:48.485Z,6.70
2022-08-29T16:47:15.262Z,7.10
2022-08-29T16:49:41.736Z,7.20
2022-08-29T16:52:08.414Z,7.15
2022-08-29T16:54:34.967Z,7.20
2022-08-29T16:57:01.461Z,6.75
2022-08-29T16:59:27.915Z,6.95
2022-08-29T17:01:55.224Z,6.70
2022-08-29T17:04:30.106Z,7.40
2022-08-29T17:06:57.185Z,7.10
2022-08-29T17:09:25.069Z,6.55
2022-08-29T17:11:53.775Z,6.82
2022-08-29T17:14:24.866Z,7.00
2022-08-29T17:16:53.068Z,6.70
2022-08-29T17:19:21.010Z,7.30
2022-08-29T17:21:48.233Z,7.00
2022-08-29T17:24:15.950Z,6.88
2022-08-29T17:26:45.231Z,7.25
2022-08-29T17:29:12.678Z,6.78
2022-08-29T17:31:39.256Z,6.68
2022-08-29T17:34:08.088Z,6.43
2022-08-29T17:36:36.757Z,7.07
2022-08-29T17:39:04.878Z,7.70
2022-08-29T17:41:31.450Z,6.95
2022-08-29T17:43:59.274Z,7.40
2022-08-29T17:46:25.822Z,6.70
2022-08-29T17:48:52.576Z,6.70
2022-08-29T17:51:19.046Z,6.88
2022-08-29T17:53:46.382Z,6.90
2022-08-29T17:56:19.835Z,6.80
2022-08-29T17:58:47.416Z,7.50
2022-08-29T18:01:16.420Z,6.80
2022-08-29T18:03:44.490Z,6.95
2022-08-29T18:06:12.359Z,6.85
2022-08-29T18:08:41.277Z,7.32
2022-08-29T18:11:11.920Z,6.82
2022-08-29T18:13:38.662Z,7.35
2022-08-29T18:16:05.183Z,7.50
2022-08-29T18:18:32.561Z,7.00
2022-08-29T18:20:59.117Z,7.80
2022-08-29T18:23:25.707Z,7.65
2022-08-29T18:25:52.163Z,7.53
2022-08-29T18:28:19.525Z,7.55
2022-08-29T18:30:46.030Z,7.63
2022-08-29T18:33:13.000Z,7.63
2022-08-29T18:35:39.487Z,7.70
2022-08-29T18:38:07.706Z,7.72
2022-08-29T18:40:39.315Z,8.32
2022-08-29T18:43:06.950Z,8.57
2022-08-29T18:45:34.622Z,8.30
2022-08-29T18:48:02.150Z,8.48
2022-08-29T18:50:34.567Z,8.07
2022-08-29T18:53:12.902Z,7.70
2022-08-29T18:55:50.495Z,8.00
2022-08-29T18:58:23.682Z,7.82
2022-08-29T19:00:51.073Z,8.10
2022-08-29T19:03:21.385Z,7.65
2022-08-29T19:08:18.553Z,7.80
2022-08-29T19:10:47.318Z,7.35
2022-08-29T19:13:15.701Z,7.90
2022-08-29T19:15:42.461Z,7.63
2022-08-29T19:18:10.538Z,7.70
2022-08-29T19:20:55.587Z,8.02
2022-08-29T19:23:22.601Z,7.88
2022-08-29T19:25:49.943Z,8.20
2022-08-29T19:28:18.178Z,8.13
2022-08-29T19:30:45.042Z,8.07
2022-08-29T19:33:15.213Z,7.75
2022-08-29T19:35:41.780Z,8.57
2022-08-29T19:38:08.441Z,7.45
2022-08-29T19:43:27.720Z,7.57
2022-08-29T19:45:54.731Z,8.13
2022-08-29T19:48:22.156Z,8.07
2022-08-29T19:50:48.721Z,7.60
2022-08-29T19:53:26.614Z,8.15
2022-08-29T19:55:56.696Z,8.10
2022-08-29T19:58:31.875Z,8.10
2022-08-29T20:01:03.290Z,8.02
2022-08-29T20:03:30.569Z,8.13
2022-08-29T20:05:57.229Z,8.40
2022-08-29T20:08:23.901Z,8.77
2022-08-29T20:10:51.229Z,8.82
2022-08-29T20:13:18.504Z,8.00
2022-08-29T20:15:44.943Z,8.75
2022-08-29T20:18:11.565Z,8.20
2022-08-29T20:20:39.895Z,8.20
2022-08-29T20:23:07.229Z,8.10
2022-08-29T20:25:34.938Z,8.30
2022-08-29T20:28:02.160Z,8.18
2022-08-29T20:30:31.726Z,8.02
2022-08-29T20:32:58.174Z,9.25
2022-08-29T20:35:43.910Z,8.82
2022-08-29T20:38:10.887Z,8.70
2022-08-29T20:40:39.465Z,8.32
2022-08-29T20:43:06.917Z,8.45
2022-08-29T20:45:33.832Z,8.77
2022-08-29T20:48:01.736Z,8.43
2022-08-29T20:52:55.603Z,8.40
2022-08-29T20:55:22.935Z,8.55
2022-08-29T20:57:49.398Z,8.70
2022-08-29T21:00:16.230Z,8.73
2022-08-29T21:03:01.019Z,8.50
2022-08-29T21:05:42.263Z,8.52
2022-08-29T21:08:15.137Z,8.93
2022-08-29T21:10:43.572Z,8.32
2022-08-29T21:13:10.676Z,8.60
2022-08-29T21:15:38.992Z,8.82
2022-08-29T21:18:06.251Z,8.77
2022-08-29T21:20:36.302Z,9.18
2022-08-29T21:23:08.193Z,8.35
2022-08-29T21:25:35.530Z,8.57
2022-08-29T21:28:02.475Z,8.38
2022-08-29T21:30:33.843Z,8.32
2022-08-29T21:33:00.534Z,8.63
2022-08-29T21:35:26.972Z,8.60
2022-08-29T21:37:54.177Z,8.48
2022-08-29T21:40:25.765Z,8.23
2022-08-29T21:42:54.749Z,8.13
2022-08-29T21:45:22.718Z,8.40
2022-08-29T21:47:54.561Z,7.82
2022-08-29T21:50:22.800Z,8.25
2022-08-29T21:52:49.569Z,8.20
2022-08-29T21:55:18.175Z,8.20
2022-08-29T21:57:51.893Z,8.48
2022-08-29T22:00:27.347Z,8.60
2022-08-29T22:02:54.572Z,8.50
2022-08-29T22:05:21.396Z,8.55
2022-08-29T22:07:47.904Z,8.48
2022-08-29T22:10:20.187Z,8.15
2022-08-29T22:12:47.245Z,8.43
2022-08-29T22:15:33.189Z,8.40
2022-08-29T22:17:59.938Z,8.90
2022-08-29T22:20:27.246Z,8.70
2022-08-29T22:22:53.854Z,8.48
2022-08-29T22:25:21.039Z,8.60
2022-08-29T22:27:47.835Z,8.40
2022-08-29T22:30:15.585Z,9.20
2022-08-29T22:32:42.986Z,8.75
2022-08-29T22:35:19.535Z,8.57
2022-08-29T22:37:46.031Z,8.60
2022-08-29T22:40:16.541Z,8.57
2022-08-29T22:42:44.488Z,8.45
2022-08-29T22:45:13.707Z,8.60
2022-08-29T22:47:42.476Z,8.50
2022-08-29T22:50:13.575Z,7.97
2022-08-29T22:52:40.141Z,8.10
2022-08-29T22:55:08.740Z,8.00
2022-08-29T22:57:35.195Z,8.60
2022-08-29T23:00:04.040Z,8.18
2022-08-29T23:02:30.499Z,8.10
2022-08-29T23:04:57.021Z,8.50
2022-08-29T23:07:23.647Z,8.10
2022-08-29T23:09:50.689Z,8.48
2022-08-29T23:12:17.650Z,8.27
2022-08-29T23:14:48.777Z,8.40
2022-08-29T23:17:16.637Z,8.10
2022-08-29T23:19:43.792Z,8.45
2022-08-29T23:22:12.686Z,8.25
2022-08-29T23:24:41.342Z,8.40
2022-08-29T23:27:20.419Z,8.20
2022-08-29T23:29:50.412Z,8.90
2022-08-29T23:32:17.238Z,8.48
2022-08-29T23:34:44.016Z,8.40
2022-08-29T23:37:10.546Z,8.40
2022-08-29T23:39:36.995Z,8.80
2022-08-29T23:42:04.013Z,8.10
2022-08-29T23:44:30.528Z,8.07
2022-08-29T23:46:57.312Z,8.20
2022-08-29T23:49:23.965Z,7.70
2022-08-29T23:51:50.925Z,8.50
2022-08-29T23:54:18.272Z,8.10
2022-08-29T23:56:45.015Z,7.68
2022-08-29T23:59:31.447Z,8.13
